Weather at Gilgil Coulson Airport

Public forecast

Using degrees Celsius for public forecast. Weather courtesy of forecast.io.

Closest aviation weather report (METAR) to Gilgil Coulson Airport

Report is more than 2 hours old.

Closest report is Nakuru Airport, 17.1 nm (31.6 km) NW.

2024/04/18 00:00 (retrieved 2 hours ago)

HKNK 180000Z 00000KT 9999 FEW018 17/15

Closest aviation forecast (TAF) to Gilgil Coulson Airport

Forecast is more than 12 hours old.

Closest forecast is Nairobi Wilson Airport, 56.3 nm (104.3 km) SSE.

2024/04/17 12:27 (retrieved 14 hours ago)

TAF HKNW 171100Z 1712/1818 14010KT 9999 BKN026 TEMPO 1713/1717 -SHRA FEW020CB SCT021 SCT080 BECMG 1721/1724 VRB05KT -RA SCT018 BKN080 BECMG 1808/1811 14010KT NSW FEW025CB BKN026